sensor_id;sensor_type;location;lat;lon;timestamp;P1;durP1;ratioP1;P2;durP2;ratioP2
71164;SDS011;58859;55.132;-1.586;2023-07-20T00:01:34;0.70;;;0.70;;
71164;SDS011;58859;55.132;-1.586;2023-07-20T00:04:00;3.87;;;1.03;;
71164;SDS011;58859;55.132;-1.586;2023-07-20T00:06:25;0.70;;;0.70;;
71164;SDS011;58859;55.132;-1.586;2023-07-20T00:08:52;0.82;;;0.60;;
71164;SDS011;58859;55.132;-1.586;2023-07-20T00:11:21;1.63;;;0.70;;
71164;SDS011;58859;55.132;-1.586;2023-07-20T00:13:50;0.50;;;0.50;;
71164;SDS011;58859;55.132;-1.586;2023-07-20T00:16:15;0.60;;;0.60;;
71164;SDS011;58859;55.132;-1.586;2023-07-20T00:18:41;0.97;;;0.73;;
71164;SDS011;58859;55.132;-1.586;2023-07-20T00:21:06;1.77;;;0.77;;
71164;SDS011;58859;55.132;-1.586;2023-07-20T00:23:31;4.67;;;0.80;;
71164;SDS011;58859;55.132;-1.586;2023-07-20T00:25:57;0.63;;;0.63;;
71164;SDS011;58859;55.132;-1.586;2023-07-20T00:28:22;2.00;;;0.90;;
71164;SDS011;58859;55.132;-1.586;2023-07-20T00:30:48;2.05;;;0.70;;
71164;SDS011;58859;55.132;-1.586;2023-07-20T00:33:16;2.38;;;0.68;;
71164;SDS011;58859;55.132;-1.586;2023-07-20T00:35:42;0.60;;;0.60;;
71164;SDS011;58859;55.132;-1.586;2023-07-20T00:38:07;1.85;;;0.68;;
71164;SDS011;58859;55.132;-1.586;2023-07-20T00:40:36;2.63;;;0.80;;
71164;SDS011;58859;55.132;-1.586;2023-07-20T00:43:02;1.45;;;1.00;;
71164;SDS011;58859;55.132;-1.586;2023-07-20T00:45:28;2.57;;;1.17;;
71164;SDS011;58859;55.132;-1.586;2023-07-20T00:47:54;2.35;;;0.85;;
71164;SDS011;58859;55.132;-1.586;2023-07-20T00:50:20;0.75;;;0.75;;
71164;SDS011;58859;55.132;-1.586;2023-07-20T00:52:45;1.20;;;0.80;;
71164;SDS011;58859;55.132;-1.586;2023-07-20T00:55:11;1.10;;;1.00;;
71164;SDS011;58859;55.132;-1.586;2023-07-20T00:57:36;0.85;;;0.73;;
71164;SDS011;58859;55.132;-1.586;2023-07-20T01:00:02;0.70;;;0.70;;
71164;SDS011;58859;55.132;-1.586;2023-07-20T01:02:28;2.63;;;1.02;;
71164;SDS011;58859;55.132;-1.586;2023-07-20T01:04:53;1.87;;;0.80;;
71164;SDS011;58859;55.132;-1.586;2023-07-20T01:07:26;3.17;;;0.97;;
71164;SDS011;58859;55.132;-1.586;2023-07-20T01:12:28;0.95;;;0.60;;
71164;SDS011;58859;55.132;-1.586;2023-07-20T01:15:00;4.78;;;1.30;;
71164;SDS011;58859;55.132;-1.586;2023-07-20T01:17:26;0.93;;;0.70;;
71164;SDS011;58859;55.132;-1.586;2023-07-20T01:19:51;2.70;;;1.20;;
71164;SDS011;58859;55.132;-1.586;2023-07-20T01:33:49;1.85;;;1.25;;
71164;SDS011;58859;55.132;-1.586;2023-07-20T01:36:17;3.40;;;1.20;;
71164;SDS011;58859;55.132;-1.586;2023-07-20T01:38:43;4.75;;;1.27;;
71164;SDS011;58859;55.132;-1.586;2023-07-20T01:41:10;2.42;;;1.13;;
71164;SDS011;58859;55.132;-1.586;2023-07-20T01:43:36;4.20;;;1.27;;
71164;SDS011;58859;55.132;-1.586;2023-07-20T01:46:02;1.50;;;1.37;;
71164;SDS011;58859;55.132;-1.586;2023-07-20T01:48:27;1.67;;;1.43;;
71164;SDS011;58859;55.132;-1.586;2023-07-20T01:50:53;5.95;;;1.77;;
71164;SDS011;58859;55.132;-1.586;2023-07-20T01:53:19;1.63;;;1.43;;
71164;SDS011;58859;55.132;-1.586;2023-07-20T01:55:45;3.20;;;1.10;;
71164;SDS011;58859;55.132;-1.586;2023-07-20T01:58:11;2.67;;;1.50;;
71164;SDS011;58859;55.132;-1.586;2023-07-20T02:00:37;3.30;;;1.77;;
71164;SDS011;58859;55.132;-1.586;2023-07-20T02:03:03;3.67;;;2.08;;
71164;SDS011;58859;55.132;-1.586;2023-07-20T02:05:28;4.83;;;2.13;;
71164;SDS011;58859;55.132;-1.586;2023-07-20T02:07:54;2.23;;;1.80;;
71164;SDS011;58859;55.132;-1.586;2023-07-20T02:10:19;5.83;;;2.33;;
71164;SDS011;58859;55.132;-1.586;2023-07-20T02:12:45;5.07;;;2.92;;
71164;SDS011;58859;55.132;-1.586;2023-07-20T02:15:11;8.40;;;2.78;;
71164;SDS011;58859;55.132;-1.586;2023-07-20T02:17:38;5.90;;;2.07;;
71164;SDS011;58859;55.132;-1.586;2023-07-20T02:20:06;3.75;;;2.17;;
71164;SDS011;58859;55.132;-1.586;2023-07-20T02:22:34;5.15;;;2.75;;
71164;SDS011;58859;55.132;-1.586;2023-07-20T02:24:59;6.53;;;2.40;;
71164;SDS011;58859;55.132;-1.586;2023-07-20T02:27:25;6.20;;;2.63;;
71164;SDS011;58859;55.132;-1.586;2023-07-20T02:29:50;4.70;;;2.50;;
71164;SDS011;58859;55.132;-1.586;2023-07-20T02:32:15;5.47;;;2.87;;
71164;SDS011;58859;55.132;-1.586;2023-07-20T02:34:41;4.60;;;2.73;;
71164;SDS011;58859;55.132;-1.586;2023-07-20T02:37:06;4.47;;;2.60;;
71164;SDS011;58859;55.132;-1.586;2023-07-20T02:39:32;6.38;;;2.78;;
71164;SDS011;58859;55.132;-1.586;2023-07-20T02:41:57;5.67;;;3.20;;
71164;SDS011;58859;55.132;-1.586;2023-07-20T02:44:23;7.70;;;3.50;;
71164;SDS011;58859;55.132;-1.586;2023-07-20T02:46:48;6.30;;;3.15;;
71164;SDS011;58859;55.132;-1.586;2023-07-20T02:49:17;8.52;;;3.05;;
71164;SDS011;58859;55.132;-1.586;2023-07-20T02:51:42;5.25;;;3.45;;
71164;SDS011;58859;55.132;-1.586;2023-07-20T02:54:08;5.97;;;2.87;;
71164;SDS011;58859;55.132;-1.586;2023-07-20T02:56:33;4.20;;;2.67;;
71164;SDS011;58859;55.132;-1.586;2023-07-20T02:59:00;4.47;;;3.03;;
71164;SDS011;58859;55.132;-1.586;2023-07-20T03:01:26;7.10;;;3.50;;
71164;SDS011;58859;55.132;-1.586;2023-07-20T03:03:54;7.18;;;3.55;;
71164;SDS011;58859;55.132;-1.586;2023-07-20T03:06:19;6.37;;;3.73;;
71164;SDS011;58859;55.132;-1.586;2023-07-20T03:08:45;4.33;;;2.83;;
71164;SDS011;58859;55.132;-1.586;2023-07-20T03:11:13;8.45;;;3.70;;
71164;SDS011;58859;55.132;-1.586;2023-07-20T03:13:40;7.80;;;4.18;;
71164;SDS011;58859;55.132;-1.586;2023-07-20T03:16:06;7.00;;;3.38;;
71164;SDS011;58859;55.132;-1.586;2023-07-20T03:18:39;5.03;;;2.80;;
71164;SDS011;58859;55.132;-1.586;2023-07-20T03:21:06;11.95;;;3.92;;
71164;SDS011;58859;55.132;-1.586;2023-07-20T03:23:32;7.45;;;3.78;;
71164;SDS011;58859;55.132;-1.586;2023-07-20T03:25:57;5.87;;;3.73;;
71164;SDS011;58859;55.132;-1.586;2023-07-20T03:28:23;10.00;;;3.75;;
71164;SDS011;58859;55.132;-1.586;2023-07-20T03:30:58;6.20;;;3.90;;
71164;SDS011;58859;55.132;-1.586;2023-07-20T03:33:27;9.10;;;3.67;;
71164;SDS011;58859;55.132;-1.586;2023-07-20T03:35:54;9.50;;;3.80;;
71164;SDS011;58859;55.132;-1.586;2023-07-20T03:38:20;5.55;;;3.25;;
71164;SDS011;58859;55.132;-1.586;2023-07-20T03:40:52;7.00;;;3.75;;
71164;SDS011;58859;55.132;-1.586;2023-07-20T03:43:18;6.72;;;4.00;;
71164;SDS011;58859;55.132;-1.586;2023-07-20T03:45:44;7.67;;;3.50;;
71164;SDS011;58859;55.132;-1.586;2023-07-20T03:48:10;6.43;;;3.33;;
71164;SDS011;58859;55.132;-1.586;2023-07-20T03:50:36;8.10;;;3.90;;
71164;SDS011;58859;55.132;-1.586;2023-07-20T03:53:02;8.85;;;3.72;;
71164;SDS011;58859;55.132;-1.586;2023-07-20T03:55:27;6.63;;;3.80;;
71164;SDS011;58859;55.132;-1.586;2023-07-20T03:57:53;6.73;;;4.00;;
71164;SDS011;58859;55.132;-1.586;2023-07-20T04:00:18;9.47;;;4.13;;
71164;SDS011;58859;55.132;-1.586;2023-07-20T04:02:44;7.67;;;4.03;;
71164;SDS011;58859;55.132;-1.586;2023-07-20T04:05:09;6.95;;;3.85;;
71164;SDS011;58859;55.132;-1.586;2023-07-20T04:07:35;7.37;;;4.27;;
71164;SDS011;58859;55.132;-1.586;2023-07-20T04:10:00;7.80;;;3.67;;
71164;SDS011;58859;55.132;-1.586;2023-07-20T04:12:25;7.77;;;3.97;;
71164;SDS011;58859;55.132;-1.586;2023-07-20T04:14:51;7.63;;;4.03;;
71164;SDS011;58859;55.132;-1.586;2023-07-20T04:17:17;10.03;;;3.77;;
71164;SDS011;58859;55.132;-1.586;2023-07-20T04:19:43;9.18;;;4.05;;
71164;SDS011;58859;55.132;-1.586;2023-07-20T04:22:08;8.13;;;4.18;;
71164;SDS011;58859;55.132;-1.586;2023-07-20T04:24:34;9.00;;;4.27;;
71164;SDS011;58859;55.132;-1.586;2023-07-20T04:26:59;7.50;;;3.90;;
71164;SDS011;58859;55.132;-1.586;2023-07-20T04:29:24;6.57;;;3.93;;
71164;SDS011;58859;55.132;-1.586;2023-07-20T04:31:50;7.00;;;3.63;;
71164;SDS011;58859;55.132;-1.586;2023-07-20T04:34:16;8.05;;;3.90;;
71164;SDS011;58859;55.132;-1.586;2023-07-20T04:36:41;7.63;;;4.07;;
71164;SDS011;58859;55.132;-1.586;2023-07-20T04:39:06;7.37;;;4.23;;
71164;SDS011;58859;55.132;-1.586;2023-07-20T04:41:33;7.30;;;4.15;;
71164;SDS011;58859;55.132;-1.586;2023-07-20T04:43:59;9.40;;;4.47;;
71164;SDS011;58859;55.132;-1.586;2023-07-20T04:46:24;9.70;;;4.30;;
71164;SDS011;58859;55.132;-1.586;2023-07-20T04:48:49;8.63;;;4.30;;
71164;SDS011;58859;55.132;-1.586;2023-07-20T04:51:15;6.60;;;4.33;;
71164;SDS011;58859;55.132;-1.586;2023-07-20T04:53:42;6.68;;;4.13;;
71164;SDS011;58859;55.132;-1.586;2023-07-20T04:56:07;6.80;;;4.80;;
71164;SDS011;58859;55.132;-1.586;2023-07-20T04:58:33;6.95;;;4.20;;
71164;SDS011;58859;55.132;-1.586;2023-07-20T05:00:59;7.40;;;3.97;;
71164;SDS011;58859;55.132;-1.586;2023-07-20T05:03:25;6.50;;;4.10;;
71164;SDS011;58859;55.132;-1.586;2023-07-20T05:05:51;8.67;;;4.37;;
71164;SDS011;58859;55.132;-1.586;2023-07-20T05:08:17;9.18;;;4.00;;
71164;SDS011;58859;55.132;-1.586;2023-07-20T05:10:42;9.80;;;4.10;;
71164;SDS011;58859;55.132;-1.586;2023-07-20T05:13:07;7.53;;;4.20;;
71164;SDS011;58859;55.132;-1.586;2023-07-20T05:15:33;9.27;;;4.43;;
71164;SDS011;58859;55.132;-1.586;2023-07-20T05:18:00;10.15;;;4.25;;
71164;SDS011;58859;55.132;-1.586;2023-07-20T05:20:26;9.02;;;4.85;;
71164;SDS011;58859;55.132;-1.586;2023-07-20T05:22:52;10.93;;;5.20;;
71164;SDS011;58859;55.132;-1.586;2023-07-20T05:25:18;11.75;;;4.80;;
71164;SDS011;58859;55.132;-1.586;2023-07-20T05:27:44;9.63;;;5.53;;
71164;SDS011;58859;55.132;-1.586;2023-07-20T05:30:10;8.55;;;4.50;;
71164;SDS011;58859;55.132;-1.586;2023-07-20T05:32:36;8.90;;;4.88;;
71164;SDS011;58859;55.132;-1.586;2023-07-20T05:35:01;12.30;;;5.00;;
71164;SDS011;58859;55.132;-1.586;2023-07-20T05:37:27;10.18;;;5.00;;
71164;SDS011;58859;55.132;-1.586;2023-07-20T05:39:52;8.83;;;4.60;;
71164;SDS011;58859;55.132;-1.586;2023-07-20T05:42:17;9.57;;;5.13;;
71164;SDS011;58859;55.132;-1.586;2023-07-20T05:44:43;8.57;;;4.17;;
71164;SDS011;58859;55.132;-1.586;2023-07-20T05:47:08;9.70;;;5.43;;
71164;SDS011;58859;55.132;-1.586;2023-07-20T05:49:34;9.23;;;4.97;;
71164;SDS011;58859;55.132;-1.586;2023-07-20T05:52:00;10.17;;;5.30;;
71164;SDS011;58859;55.132;-1.586;2023-07-20T05:54:26;8.00;;;4.32;;
71164;SDS011;58859;55.132;-1.586;2023-07-20T05:56:51;7.70;;;5.35;;
71164;SDS011;58859;55.132;-1.586;2023-07-20T05:59:17;7.87;;;4.20;;
71164;SDS011;58859;55.132;-1.586;2023-07-20T06:01:46;8.93;;;4.73;;
71164;SDS011;58859;55.132;-1.586;2023-07-20T06:04:14;10.82;;;5.03;;
71164;SDS011;58859;55.132;-1.586;2023-07-20T06:06:40;8.93;;;4.72;;
71164;SDS011;58859;55.132;-1.586;2023-07-20T06:09:06;8.57;;;4.83;;
71164;SDS011;58859;55.132;-1.586;2023-07-20T06:11:35;9.82;;;5.18;;
71164;SDS011;58859;55.132;-1.586;2023-07-20T06:14:00;7.88;;;4.75;;
71164;SDS011;58859;55.132;-1.586;2023-07-20T06:16:26;8.70;;;4.87;;
71164;SDS011;58859;55.132;-1.586;2023-07-20T06:18:54;7.93;;;4.30;;
71164;SDS011;58859;55.132;-1.586;2023-07-20T06:21:20;9.02;;;4.28;;
71164;SDS011;58859;55.132;-1.586;2023-07-20T06:23:45;8.10;;;4.90;;
71164;SDS011;58859;55.132;-1.586;2023-07-20T06:26:11;7.10;;;5.00;;
71164;SDS011;58859;55.132;-1.586;2023-07-20T06:28:36;8.00;;;5.05;;
71164;SDS011;58859;55.132;-1.586;2023-07-20T06:31:02;7.30;;;3.93;;
71164;SDS011;58859;55.132;-1.586;2023-07-20T06:33:28;8.68;;;4.32;;
71164;SDS011;58859;55.132;-1.586;2023-07-20T06:35:54;6.97;;;4.13;;
71164;SDS011;58859;55.132;-1.586;2023-07-20T06:38:21;8.80;;;4.75;;
71164;SDS011;58859;55.132;-1.586;2023-07-20T06:40:48;10.07;;;4.93;;
71164;SDS011;58859;55.132;-1.586;2023-07-20T06:43:14;7.40;;;4.22;;
71164;SDS011;58859;55.132;-1.586;2023-07-20T06:45:40;6.40;;;4.20;;
71164;SDS011;58859;55.132;-1.586;2023-07-20T06:48:06;6.88;;;3.88;;
71164;SDS011;58859;55.132;-1.586;2023-07-20T06:50:31;5.93;;;4.23;;
71164;SDS011;58859;55.132;-1.586;2023-07-20T06:52:57;7.90;;;4.07;;
71164;SDS011;58859;55.132;-1.586;2023-07-20T06:55:23;6.85;;;3.85;;
71164;SDS011;58859;55.132;-1.586;2023-07-20T06:57:49;7.80;;;4.53;;
71164;SDS011;58859;55.132;-1.586;2023-07-20T07:00:15;4.93;;;3.78;;
71164;SDS011;58859;55.132;-1.586;2023-07-20T07:02:40;6.63;;;4.00;;
71164;SDS011;58859;55.132;-1.586;2023-07-20T07:05:06;5.90;;;3.70;;
71164;SDS011;58859;55.132;-1.586;2023-07-20T07:07:31;6.32;;;3.97;;
71164;SDS011;58859;55.132;-1.586;2023-07-20T07:09:57;6.97;;;3.80;;
71164;SDS011;58859;55.132;-1.586;2023-07-20T07:12:22;6.55;;;3.40;;
71164;SDS011;58859;55.132;-1.586;2023-07-20T07:14:48;7.10;;;3.80;;
71164;SDS011;58859;55.132;-1.586;2023-07-20T07:17:13;5.10;;;3.57;;
71164;SDS011;58859;55.132;-1.586;2023-07-20T07:19:39;5.60;;;2.97;;
71164;SDS011;58859;55.132;-1.586;2023-07-20T07:22:05;5.93;;;4.20;;
71164;SDS011;58859;55.132;-1.586;2023-07-20T07:24:31;5.32;;;3.45;;
71164;SDS011;58859;55.132;-1.586;2023-07-20T07:27:01;6.75;;;3.88;;
71164;SDS011;58859;55.132;-1.586;2023-07-20T07:29:28;4.17;;;2.80;;
71164;SDS011;58859;55.132;-1.586;2023-07-20T07:31:54;4.95;;;3.30;;
71164;SDS011;58859;55.132;-1.586;2023-07-20T07:34:19;4.93;;;3.30;;
71164;SDS011;58859;55.132;-1.586;2023-07-20T07:36:45;5.57;;;3.07;;
71164;SDS011;58859;55.132;-1.586;2023-07-20T07:39:10;5.80;;;3.30;;
71164;SDS011;58859;55.132;-1.586;2023-07-20T07:41:36;6.30;;;4.40;;
71164;SDS011;58859;55.132;-1.586;2023-07-20T07:44:01;7.53;;;3.60;;
71164;SDS011;58859;55.132;-1.586;2023-07-20T07:46:27;5.30;;;3.80;;
71164;SDS011;58859;55.132;-1.586;2023-07-20T07:48:52;6.57;;;3.60;;
71164;SDS011;58859;55.132;-1.586;2023-07-20T07:51:18;5.50;;;3.30;;
71164;SDS011;58859;55.132;-1.586;2023-07-20T07:53:45;5.85;;;3.45;;
71164;SDS011;58859;55.132;-1.586;2023-07-20T07:56:11;6.10;;;3.60;;
71164;SDS011;58859;55.132;-1.586;2023-07-20T07:58:36;4.78;;;3.70;;
71164;SDS011;58859;55.132;-1.586;2023-07-20T08:01:02;5.57;;;3.37;;
71164;SDS011;58859;55.132;-1.586;2023-07-20T08:03:28;4.97;;;3.35;;
71164;SDS011;58859;55.132;-1.586;2023-07-20T08:05:56;5.10;;;3.50;;
71164;SDS011;58859;55.132;-1.586;2023-07-20T08:08:22;6.35;;;3.83;;
71164;SDS011;58859;55.132;-1.586;2023-07-20T08:10:47;6.88;;;3.50;;
71164;SDS011;58859;55.132;-1.586;2023-07-20T08:13:13;7.30;;;4.10;;
71164;SDS011;58859;55.132;-1.586;2023-07-20T08:15:39;5.38;;;3.65;;
71164;SDS011;58859;55.132;-1.586;2023-07-20T08:18:07;5.85;;;3.63;;
71164;SDS011;58859;55.132;-1.586;2023-07-20T08:20:33;4.45;;;3.47;;
71164;SDS011;58859;55.132;-1.586;2023-07-20T08:23:00;6.63;;;4.07;;
71164;SDS011;58859;55.132;-1.586;2023-07-20T08:25:26;5.07;;;3.65;;
71164;SDS011;58859;55.132;-1.586;2023-07-20T08:27:51;7.03;;;3.73;;
71164;SDS011;58859;55.132;-1.586;2023-07-20T08:30:17;6.20;;;3.93;;
71164;SDS011;58859;55.132;-1.586;2023-07-20T08:32:42;7.37;;;4.10;;
71164;SDS011;58859;55.132;-1.586;2023-07-20T08:35:08;6.45;;;4.18;;
71164;SDS011;58859;55.132;-1.586;2023-07-20T08:37:33;6.72;;;3.22;;
71164;SDS011;58859;55.132;-1.586;2023-07-20T08:39:59;5.93;;;3.53;;
71164;SDS011;58859;55.132;-1.586;2023-07-20T08:42:24;5.25;;;3.80;;
71164;SDS011;58859;55.132;-1.586;2023-07-20T08:44:51;5.95;;;4.05;;
71164;SDS011;58859;55.132;-1.586;2023-07-20T08:47:18;6.07;;;3.47;;
71164;SDS011;58859;55.132;-1.586;2023-07-20T08:49:46;7.18;;;4.07;;
71164;SDS011;58859;55.132;-1.586;2023-07-20T08:52:13;6.38;;;3.88;;
71164;SDS011;58859;55.132;-1.586;2023-07-20T08:54:39;5.67;;;3.80;;
71164;SDS011;58859;55.132;-1.586;2023-07-20T08:57:05;5.05;;;3.55;;
71164;SDS011;58859;55.132;-1.586;2023-07-20T08:59:32;6.90;;;3.67;;
71164;SDS011;58859;55.132;-1.586;2023-07-20T09:02:01;5.57;;;3.95;;
71164;SDS011;58859;55.132;-1.586;2023-07-20T09:04:29;6.33;;;3.50;;
71164;SDS011;58859;55.132;-1.586;2023-07-20T09:06:54;6.70;;;3.65;;
71164;SDS011;58859;55.132;-1.586;2023-07-20T09:09:20;4.67;;;3.60;;
71164;SDS011;58859;55.132;-1.586;2023-07-20T09:11:47;5.03;;;3.30;;
71164;SDS011;58859;55.132;-1.586;2023-07-20T09:14:13;5.22;;;3.53;;
71164;SDS011;58859;55.132;-1.586;2023-07-20T09:16:49;4.95;;;3.20;;
71164;SDS011;58859;55.132;-1.586;2023-07-20T09:19:17;5.67;;;3.60;;
71164;SDS011;58859;55.132;-1.586;2023-07-20T09:21:49;6.03;;;3.47;;
71164;SDS011;58859;55.132;-1.586;2023-07-20T09:24:16;5.82;;;3.35;;
71164;SDS011;58859;55.132;-1.586;2023-07-20T09:26:43;5.95;;;3.90;;
71164;SDS011;58859;55.132;-1.586;2023-07-20T09:29:10;5.93;;;3.55;;
71164;SDS011;58859;55.132;-1.586;2023-07-20T09:31:36;6.30;;;3.88;;
71164;SDS011;58859;55.132;-1.586;2023-07-20T09:34:02;6.35;;;3.80;;
71164;SDS011;58859;55.132;-1.586;2023-07-20T09:36:29;6.35;;;3.72;;
71164;SDS011;58859;55.132;-1.586;2023-07-20T09:38:58;8.57;;;5.05;;
71164;SDS011;58859;55.132;-1.586;2023-07-20T09:41:24;7.80;;;4.57;;
71164;SDS011;58859;55.132;-1.586;2023-07-20T09:43:51;7.22;;;4.32;;
71164;SDS011;58859;55.132;-1.586;2023-07-20T09:46:18;8.07;;;4.30;;
71164;SDS011;58859;55.132;-1.586;2023-07-20T09:48:51;6.57;;;4.28;;
71164;SDS011;58859;55.132;-1.586;2023-07-20T09:51:18;6.28;;;3.85;;
71164;SDS011;58859;55.132;-1.586;2023-07-20T09:53:45;7.38;;;3.70;;
71164;SDS011;58859;55.132;-1.586;2023-07-20T09:56:13;5.20;;;3.33;;
71164;SDS011;58859;55.132;-1.586;2023-07-20T09:58:42;8.05;;;4.00;;
71164;SDS011;58859;55.132;-1.586;2023-07-20T10:01:10;4.63;;;3.22;;
71164;SDS011;58859;55.132;-1.586;2023-07-20T10:03:39;5.65;;;3.22;;
71164;SDS011;58859;55.132;-1.586;2023-07-20T10:06:10;5.20;;;3.28;;
71164;SDS011;58859;55.132;-1.586;2023-07-20T10:08:40;6.68;;;3.90;;
71164;SDS011;58859;55.132;-1.586;2023-07-20T10:11:07;5.45;;;3.15;;
71164;SDS011;58859;55.132;-1.586;2023-07-20T10:13:38;3.67;;;2.92;;
71164;SDS011;58859;55.132;-1.586;2023-07-20T10:16:26;6.00;;;2.85;;
71164;SDS011;58859;55.132;-1.586;2023-07-20T10:21:21;4.50;;;3.40;;
71164;SDS011;58859;55.132;-1.586;2023-07-20T10:23:50;5.32;;;2.90;;
71164;SDS011;58859;55.132;-1.586;2023-07-20T10:26:15;3.37;;;2.70;;
71164;SDS011;58859;55.132;-1.586;2023-07-20T10:28:41;4.30;;;2.57;;
71164;SDS011;58859;55.132;-1.586;2023-07-20T10:31:11;3.55;;;2.80;;
71164;SDS011;58859;55.132;-1.586;2023-07-20T10:33:38;5.45;;;2.78;;
71164;SDS011;58859;55.132;-1.586;2023-07-20T10:36:05;3.53;;;2.45;;
71164;SDS011;58859;55.132;-1.586;2023-07-20T10:38:40;3.23;;;2.07;;
71164;SDS011;58859;55.132;-1.586;2023-07-20T10:41:17;3.75;;;2.40;;
71164;SDS011;58859;55.132;-1.586;2023-07-20T10:44:00;2.78;;;2.17;;
71164;SDS011;58859;55.132;-1.586;2023-07-20T10:49:04;3.47;;;1.95;;
71164;SDS011;58859;55.132;-1.586;2023-07-20T10:51:47;2.73;;;2.00;;
71164;SDS011;58859;55.132;-1.586;2023-07-20T10:56:51;3.83;;;2.10;;
71164;SDS011;58859;55.132;-1.586;2023-07-20T10:59:20;2.13;;;1.92;;
71164;SDS011;58859;55.132;-1.586;2023-07-20T11:02:05;4.45;;;2.17;;
71164;SDS011;58859;55.132;-1.586;2023-07-20T11:04:42;2.30;;;2.10;;
71164;SDS011;58859;55.132;-1.586;2023-07-20T11:07:08;2.80;;;1.77;;
71164;SDS011;58859;55.132;-1.586;2023-07-20T11:09:34;2.65;;;2.00;;
71164;SDS011;58859;55.132;-1.586;2023-07-20T11:12:11;2.57;;;1.80;;
71164;SDS011;58859;55.132;-1.586;2023-07-20T11:14:53;2.42;;;1.73;;
71164;SDS011;58859;55.132;-1.586;2023-07-20T11:17:21;3.65;;;2.05;;
71164;SDS011;58859;55.132;-1.586;2023-07-20T11:19:57;3.20;;;2.30;;
71164;SDS011;58859;55.132;-1.586;2023-07-20T11:22:25;2.55;;;2.00;;
71164;SDS011;58859;55.132;-1.586;2023-07-20T11:24:54;2.90;;;2.53;;
71164;SDS011;58859;55.132;-1.586;2023-07-20T11:27:20;4.95;;;2.83;;
71164;SDS011;58859;55.132;-1.586;2023-07-20T11:29:47;4.68;;;3.42;;
71164;SDS011;58859;55.132;-1.586;2023-07-20T11:32:19;6.57;;;3.70;;
71164;SDS011;58859;55.132;-1.586;2023-07-20T11:34:49;4.40;;;3.17;;
71164;SDS011;58859;55.132;-1.586;2023-07-20T11:37:15;5.13;;;3.87;;
71164;SDS011;58859;55.132;-1.586;2023-07-20T11:39:41;6.97;;;4.00;;
71164;SDS011;58859;55.132;-1.586;2023-07-20T11:42:07;5.23;;;3.93;;
71164;SDS011;58859;55.132;-1.586;2023-07-20T11:44:33;7.03;;;4.05;;
71164;SDS011;58859;55.132;-1.586;2023-07-20T11:49:38;6.97;;;4.43;;
71164;SDS011;58859;55.132;-1.586;2023-07-20T11:52:08;7.30;;;4.40;;
71164;SDS011;58859;55.132;-1.586;2023-07-20T11:54:36;5.93;;;3.92;;
71164;SDS011;58859;55.132;-1.586;2023-07-20T11:57:03;7.78;;;3.88;;
71164;SDS011;58859;55.132;-1.586;2023-07-20T11:59:30;7.03;;;4.78;;
71164;SDS011;58859;55.132;-1.586;2023-07-20T12:01:56;8.60;;;5.18;;
71164;SDS011;58859;55.132;-1.586;2023-07-20T12:04:22;8.10;;;4.85;;
71164;SDS011;58859;55.132;-1.586;2023-07-20T12:06:48;7.63;;;5.30;;
71164;SDS011;58859;55.132;-1.586;2023-07-20T12:09:14;7.53;;;5.07;;
71164;SDS011;58859;55.132;-1.586;2023-07-20T12:11:42;8.50;;;5.30;;
71164;SDS011;58859;55.132;-1.586;2023-07-20T12:14:08;10.32;;;5.72;;
71164;SDS011;58859;55.132;-1.586;2023-07-20T12:16:35;10.13;;;5.30;;
71164;SDS011;58859;55.132;-1.586;2023-07-20T12:19:05;9.05;;;5.72;;
71164;SDS011;58859;55.132;-1.586;2023-07-20T12:21:33;10.63;;;5.88;;
71164;SDS011;58859;55.132;-1.586;2023-07-20T12:24:01;9.68;;;6.05;;
71164;SDS011;58859;55.132;-1.586;2023-07-20T12:26:28;8.80;;;6.00;;
71164;SDS011;58859;55.132;-1.586;2023-07-20T12:28:55;8.00;;;5.77;;
71164;SDS011;58859;55.132;-1.586;2023-07-20T12:31:21;8.07;;;5.28;;
71164;SDS011;58859;55.132;-1.586;2023-07-20T12:33:48;7.05;;;5.32;;
71164;SDS011;58859;55.132;-1.586;2023-07-20T12:36:14;7.88;;;5.47;;
71164;SDS011;58859;55.132;-1.586;2023-07-20T12:38:39;8.03;;;5.60;;
71164;SDS011;58859;55.132;-1.586;2023-07-20T12:41:07;12.50;;;5.55;;
71164;SDS011;58859;55.132;-1.586;2023-07-20T12:43:32;15.35;;;5.97;;
71164;SDS011;58859;55.132;-1.586;2023-07-20T12:45:59;9.10;;;5.80;;
71164;SDS011;58859;55.132;-1.586;2023-07-20T12:48:24;7.63;;;5.15;;
71164;SDS011;58859;55.132;-1.586;2023-07-20T12:50:50;9.47;;;5.80;;
71164;SDS011;58859;55.132;-1.586;2023-07-20T12:53:16;9.17;;;5.77;;
71164;SDS011;58859;55.132;-1.586;2023-07-20T12:55:41;9.65;;;5.72;;
71164;SDS011;58859;55.132;-1.586;2023-07-20T12:58:07;10.15;;;5.78;;
71164;SDS011;58859;55.132;-1.586;2023-07-20T13:00:33;7.75;;;4.80;;
71164;SDS011;58859;55.132;-1.586;2023-07-20T13:02:59;8.02;;;5.57;;
71164;SDS011;58859;55.132;-1.586;2023-07-20T13:05:24;7.27;;;4.93;;
71164;SDS011;58859;55.132;-1.586;2023-07-20T13:07:50;11.10;;;5.60;;
71164;SDS011;58859;55.132;-1.586;2023-07-20T13:10:15;12.47;;;6.70;;
71164;SDS011;58859;55.132;-1.586;2023-07-20T13:12:41;8.52;;;5.40;;
71164;SDS011;58859;55.132;-1.586;2023-07-20T13:15:07;7.97;;;5.63;;
71164;SDS011;58859;55.132;-1.586;2023-07-20T13:17:34;8.90;;;5.57;;
71164;SDS011;58859;55.132;-1.586;2023-07-20T13:20:01;10.10;;;5.88;;
71164;SDS011;58859;55.132;-1.586;2023-07-20T13:22:29;8.15;;;5.38;;
71164;SDS011;58859;55.132;-1.586;2023-07-20T13:24:55;9.73;;;5.82;;
71164;SDS011;58859;55.132;-1.586;2023-07-20T13:27:20;7.47;;;4.78;;
71164;SDS011;58859;55.132;-1.586;2023-07-20T13:29:46;9.67;;;5.30;;
71164;SDS011;58859;55.132;-1.586;2023-07-20T13:32:14;8.30;;;5.37;;
71164;SDS011;58859;55.132;-1.586;2023-07-20T13:34:41;8.35;;;4.75;;
71164;SDS011;58859;55.132;-1.586;2023-07-20T13:37:06;8.30;;;5.55;;
71164;SDS011;58859;55.132;-1.586;2023-07-20T13:39:33;8.13;;;5.00;;
71164;SDS011;58859;55.132;-1.586;2023-07-20T13:41:58;9.80;;;5.05;;
71164;SDS011;58859;55.132;-1.586;2023-07-20T13:44:24;8.67;;;5.37;;
71164;SDS011;58859;55.132;-1.586;2023-07-20T13:46:49;7.70;;;5.40;;
71164;SDS011;58859;55.132;-1.586;2023-07-20T13:49:15;7.93;;;5.03;;
71164;SDS011;58859;55.132;-1.586;2023-07-20T13:51:43;8.68;;;5.65;;
71164;SDS011;58859;55.132;-1.586;2023-07-20T13:54:09;12.27;;;5.97;;
71164;SDS011;58859;55.132;-1.586;2023-07-20T13:56:34;10.40;;;6.13;;
71164;SDS011;58859;55.132;-1.586;2023-07-20T13:59:00;11.68;;;7.00;;
71164;SDS011;58859;55.132;-1.586;2023-07-20T14:01:26;8.50;;;5.27;;
71164;SDS011;58859;55.132;-1.586;2023-07-20T14:03:53;8.65;;;5.10;;
71164;SDS011;58859;55.132;-1.586;2023-07-20T14:06:18;9.68;;;6.53;;
71164;SDS011;58859;55.132;-1.586;2023-07-20T14:08:44;10.15;;;6.20;;
71164;SDS011;58859;55.132;-1.586;2023-07-20T14:11:13;9.20;;;5.57;;
71164;SDS011;58859;55.132;-1.586;2023-07-20T14:13:39;14.18;;;5.72;;
71164;SDS011;58859;55.132;-1.586;2023-07-20T14:16:05;10.80;;;5.67;;
71164;SDS011;58859;55.132;-1.586;2023-07-20T14:18:31;11.65;;;5.80;;
71164;SDS011;58859;55.132;-1.586;2023-07-20T14:20:56;12.13;;;5.65;;
71164;SDS011;58859;55.132;-1.586;2023-07-20T14:23:22;6.77;;;5.00;;
71164;SDS011;58859;55.132;-1.586;2023-07-20T14:25:48;10.20;;;5.30;;
71164;SDS011;58859;55.132;-1.586;2023-07-20T14:28:13;8.25;;;5.10;;
71164;SDS011;58859;55.132;-1.586;2023-07-20T14:30:39;7.30;;;4.90;;
71164;SDS011;58859;55.132;-1.586;2023-07-20T14:33:05;8.32;;;5.15;;
71164;SDS011;58859;55.132;-1.586;2023-07-20T14:35:30;8.67;;;4.97;;
71164;SDS011;58859;55.132;-1.586;2023-07-20T14:37:56;12.30;;;5.88;;
71164;SDS011;58859;55.132;-1.586;2023-07-20T14:40:21;9.27;;;5.57;;
71164;SDS011;58859;55.132;-1.586;2023-07-20T14:42:47;9.10;;;5.23;;
71164;SDS011;58859;55.132;-1.586;2023-07-20T14:45:12;10.50;;;5.67;;
71164;SDS011;58859;55.132;-1.586;2023-07-20T14:47:37;9.57;;;5.53;;
71164;SDS011;58859;55.132;-1.586;2023-07-20T14:50:03;10.67;;;5.93;;
71164;SDS011;58859;55.132;-1.586;2023-07-20T14:52:29;8.88;;;5.57;;
71164;SDS011;58859;55.132;-1.586;2023-07-20T14:54:55;9.05;;;5.40;;